Latest Weather Observations for Holsworthy

IDN60901

Issued at 9:11 pm EST Monday 6 July 2015 (issued every 10 minutes, with the page automatically refreshed every 10 minutes)

About weather observations | Map of Sydney area stations | Latest observations for Sydney area | Other Formats
Station Details ID: 066161 Name: HOLSWORTHY AERODROME AWS Lat: -33.99 Lon: 150.95 Height: 68.16 m
Data from the previous 72 hours. | See also: Recent months at Holsworthy
Date/Time
EST
Tmp

°C
App
Tmp
°C
Dew
Point
°C
Rel
Hum
%
Delta-T

°C
Wind Press
QNH
hPa
Press
MSL
hPa
Rain
since
9 am
mm
Dir
 
Spd
km/h
Gust
km/h
Spd
kts
Gust
kts
06/09:00pm 5.9 2.4 1.1 71 1.9 WSW 9 11 5 6 1016.4 1016.4 0.0
06/08:30pm 6.6 3.5 1.5 70 2.1 SW 7 9 4 5 1016.2 1016.2 0.0
06/08:00pm 7.2 4.2 1.7 68 2.2 WSW 7 11 4 6 1016.2 1016.2 0.0
06/07:30pm 8.0 4.2 1.8 65 2.6 W 11 17 6 9 1016.2 1016.2 0.0
06/07:00pm 8.3 4.9 2.1 65 2.6 W 9 15 5 8 1016.1 1016.1 0.0
06/06:30pm 8.9 5.9 2.0 62 2.9 W 7 9 4 5 1015.9 1015.9 0.0
06/06:00pm 9.8 6.8 1.9 58 3.3 WSW 7 11 4 6 1015.6 1015.6 0.0
06/05:30pm 11.2 7.4 2.0 53 3.9 W 11 15 6 8 1015.2 1015.2 0.0
06/05:00pm 12.3 7.0 1.9 49 4.5 W 19 30 10 16 1014.8 1014.8 0.0
06/04:30pm 13.4 8.5 2.0 46 5.0 WSW 17 28 9 15 1014.2 1014.3 0.0
06/04:00pm 14.5 9.3 2.7 45 5.3 WSW 19 26 10 14 1013.9 1014.0 0.0
06/03:30pm 15.2 10.0 2.4 42 5.7 WSW 19 33 10 18 1013.6 1013.7 0.0
06/03:00pm 15.8 10.6 2.6 41 6.0 WSW 19 30 10 16 1013.4 1013.5 0.0
06/02:30pm 15.9 10.2 2.7 41 6.0 WSW 22 33 12 18 1013.2 1013.3 0.0
06/02:00pm 15.8 10.1 2.6 41 6.0 W 22 33 12 18 1013.0 1013.1 0.0
06/01:30pm 15.6 9.4 2.1 40 6.0 WSW 24 33 13 18 1013.1 1013.2 0.0
06/01:00pm 15.2 9.7 1.7 40 5.9 WSW 20 32 11 17 1013.5 1013.6 0.0
06/12:30pm 14.9 8.7 2.1 42 5.7 WSW 24 33 13 18 1013.8 1013.9 0.0
06/12:00pm 14.2 8.9 2.1 44 5.3 W 19 32 10 17 1014.4 1014.4 0.0
06/11:30am 13.3 8.5 2.5 48 4.8 W 17 30 9 16 1014.9 1014.9 0.0
06/11:00am 12.6 7.9 3.0 52 4.2 W 17 28 9 15 1015.4 1015.4 0.0
06/10:30am 11.7 7.7 3.0 55 3.8 W 13 20 7 11 1015.7 1015.7 0.0
06/10:00am 10.6 7.1 3.6 62 3.1 W 11 19 6 10 1016.0 1016.0 0.0
06/09:30am 9.1 5.6 3.7 69 2.3 W 11 13 6 7 1016.2 1016.2 0.0
06/09:00am 7.8 5.3 3.7 75 1.8 W 6 7 3 4 1016.3 1016.3 0.0
06/08:30am 5.8 3.0 3.0 82 1.2 WSW 7 9 4 5 1016.4 1016.4 0.0
06/08:00am 4.1 1.3 2.9 92 0.5 WSW 7 11 4 6 1016.3 1016.3 0.0
06/07:30am 2.4 -1.0 1.7 95 0.3 WSW 9 11 5 6 1016.2 1016.2 0.0
06/07:00am 1.6 -2.3 0.9 95 0.3 WSW 11 15 6 8 1016.1 1016.1 0.0
06/06:30am 0.9 -2.4 -0.1 93 0.4 WSW 7 9 4 5 1016.0 1016.0 0.0
06/06:00am 1.5 -2.1 0.5 93 0.4 WSW 9 11 5 6 1016.0 1016.0 0.0
06/05:30am 1.9 -1.7 0.9 93 0.4 WSW 9 13 5 7 1015.9 1015.9 0.0
06/05:00am 2.1 -1.1 0.9 92 0.5 WSW 7 11 4 6 1016.0 1016.0 0.0
06/04:30am 2.5 -1.0 1.3 92 0.5 WSW 9 11 5 6 1016.1 1016.1 0.0
06/04:00am 2.8 -0.4 1.0 88 0.7 SW 7 7 4 4 1016.2 1016.2 0.0
06/03:30am 4.3 1.0 2.5 88 0.7 WSW 9 13 5 7 1016.4 1016.4 0.0
06/03:00am 3.8 0.1 2.3 90 0.6 WSW 11 13 6 7 1016.6 1016.6 0.0
06/02:30am 4.0 0.7 2.7 91 0.5 WSW 9 13 5 7 1017.0 1017.0 0.0
06/02:00am 4.1 0.9 2.9 92 0.5 WSW 9 11 5 6 1017.3 1017.3 0.0
06/01:30am 4.0 0.8 3.0 93 0.4 WSW 9 13 5 7 1017.4 1017.4 0.0
06/01:00am 3.1 0.1 1.9 92 0.5 WSW 7 11 4 6 1017.7 1017.7 0.0
06/12:30am 3.2 0.2 1.9 91 0.5 WSW 7 9 4 5 1017.8 1017.8 0.0
06/12:00am 4.2 1.0 3.0 92 0.5 WSW 9 11 5 6 1017.9 1017.9 0.0
 
Date/Time
EST
Tmp

°C
App
Tmp
°C
Dew
Point
°C
Rel
Hum
%
Delta-T

°C
Wind Press
QNH
hPa
Press
MSL
hPa
Rain
since
9 am
mm
Dir
 
Spd
km/h
Gust
km/h
Spd
kts
Gust
kts
05/11:30pm 3.6 0.2 2.1 90 0.6 W 9 11 5 6 1018.0 1018.0 0.0
05/11:00pm 4.2 1.3 2.6 89 0.6 WSW 7 9 4 5 1018.0 1018.0 0.0
05/10:30pm 4.3 0.6 2.5 88 0.7 WSW 11 13 6 7 1018.0 1018.0 0.0
05/10:00pm 5.1 1.8 2.6 84 1.0 SW 9 11 5 6 1018.0 1018.0 0.0
05/09:30pm 6.0 2.8 3.3 83 1.1 SSW 9 13 5 7 1018.0 1018.0 0.0
05/09:00pm 6.0 2.7 2.6 79 1.4 SW 9 11 5 6 1018.1 1018.1 0.0
05/08:30pm 7.2 3.9 2.5 72 2.0 SW 9 13 5 7 1018.1 1018.1 0.0
05/08:00pm 8.5 5.2 4.5 76 1.8 SW 11 13 6 7 1018.3 1018.3 0.0
05/07:30pm 7.6 4.5 3.6 76 1.7 SW 9 11 5 6 1018.5 1018.5 0.0
05/07:00pm 7.6 4.4 3.3 74 1.8 SW 9 9 5 5 1018.6 1018.6 0.0
05/06:30pm 8.6 7.2 3.8 72 2.1 CALM 0 0 0 0 1018.4 1018.4 0.0
05/06:00pm 9.3 7.9 3.7 68 2.4 CALM 0 0 0 0 1018.1 1018.1 0.0
05/05:30pm 10.5 9.1 3.5 62 3.1 CALM 0 0 0 0 1017.9 1017.9 0.0
05/05:00pm 13.1 10.6 3.7 53 4.2 NNW 6 7 3 4 1018.1 1018.1 0.0
05/04:30pm 14.7 12.3 4.4 50 4.8 NE 6 7 3 4 1017.9 1017.9 0.0
05/04:00pm 15.8 13.1 2.6 41 5.9 NE 6 9 3 5 1017.9 1017.9 0.0
05/03:30pm 16.5 13.7 1.8 37 6.6 N 6 9 3 5 1018.0 1018.0 0.0
05/03:00pm 16.6 13.5 1.5 36 6.7 NNE 7 9 4 5 1018.0 1018.0 0.0
05/02:30pm 16.7 13.9 2.0 37 6.6 N 6 9 3 5 1018.0 1018.0 0.0
05/02:00pm 16.3 13.3 2.0 38 6.4 NNE 7 11 4 6 1018.2 1018.2 0.0
05/01:30pm 16.2 13.4 2.9 41 6.1 NNW 7 9 4 5 1018.3 1018.3 0.0
05/01:00pm 15.5 12.8 3.6 45 5.5 WNW 7 11 4 6 1018.7 1018.7 0.0
05/12:30pm 14.9 12.0 2.8 44 5.4 NNW 7 13 4 7 1019.2 1019.2 0.0
05/12:00pm 14.1 10.8 2.7 46 5.1 WNW 9 13 5 7 1019.9 1020.0 0.0
05/11:30am 13.4 10.7 3.5 51 4.5 W 7 13 4 7 1020.7 1020.8 0.0
05/11:00am 12.2 9.1 3.7 56 3.8 W 9 13 5 7 1021.2 1021.3 0.0
05/10:30am 11.2 7.7 3.3 58 3.5 W 11 15 6 8 1021.6 1021.7 0.0
05/10:00am 9.8 6.7 3.8 66 2.6 W 9 13 5 7 1022.0 1022.1 0.0
05/09:30am 8.3 5.1 3.2 70 2.2 W 9 11 5 6 1022.1 1022.2 0.0
05/09:00am 6.8 4.0 3.2 78 1.5 WNW 7 9 4 5 1022.1 1022.2 0.0
05/08:30am 4.5 1.6 2.5 87 0.8 W 7 9 4 5 1022.1 1022.2 0.0
05/08:00am 2.9 -0.2 1.6 91 0.5 WSW 7 9 4 5 1022.1 1022.2 0.0
05/07:30am 2.4 -0.7 1.5 94 0.3 WSW 7 9 4 5 1022.0 1022.1 0.0
05/07:00am 1.8 -1.8 0.9 94 0.3 WSW 9 11 5 6 1021.7 1021.8 0.0
05/06:30am 1.5 -1.7 0.5 93 0.4 WSW 7 11 4 6 1021.5 1021.6 0.0
05/06:00am 1.8 -1.4 0.8 93 0.4 W 7 9 4 5 1021.3 1021.4 0.0
05/05:30am 2.1 -1.1 0.8 91 0.5 W 7 9 4 5 1021.3 1021.4 0.0
05/05:00am 2.8 -0.3 1.3 90 0.6 WNW 7 11 4 6 1021.2 1021.3 0.0
05/04:30am 2.7 -0.8 1.1 89 0.6 W 9 11 5 6 1021.1 1021.2 0.0
05/04:00am 3.4 0.3 1.4 87 0.8 W 7 9 4 5 1021.1 1021.2 0.0
05/03:30am 3.7 0.3 1.7 87 0.8 W 9 11 5 6 1021.2 1021.3 0.0
05/03:00am 3.5 0.0 1.2 85 0.9 WSW 9 11 5 6 1021.3 1021.4 0.0
05/02:30am 4.7 0.5 1.9 82 1.1 WSW 13 15 7 8 1021.5 1021.6 0.0
05/02:00am 3.7 0.2 1.4 85 0.9 WSW 9 13 5 7 1021.5 1021.6 0.0
05/01:30am 4.6 1.5 1.6 81 1.2 W 7 9 4 5 1021.7 1021.8 0.0
05/01:00am 5.9 2.2 2.2 77 1.5 WSW 11 17 6 9 1021.6 1021.7 0.0
05/12:30am 5.4 2.0 1.7 77 1.5 WSW 9 13 5 7 1021.5 1021.6 0.0
05/12:00am 6.1 2.3 2.0 75 1.7 WSW 11 13 6 7 1021.6 1021.7 0.0
 
Date/Time
EST
Tmp

°C
App
Tmp
°C
Dew
Point
°C
Rel
Hum
%
Delta-T

°C
Wind Press
QNH
hPa
Press
MSL
hPa
Rain
since
9 am
mm
Dir
 
Spd
km/h
Gust
km/h
Spd
kts
Gust
kts
04/11:30pm 6.3 2.5 2.0 74 1.8 WSW 11 15 6 8 1021.8 1021.9 0.0
04/11:00pm 6.5 2.7 1.8 72 1.9 WSW 11 15 6 8 1021.9 1022.0 0.0
04/10:30pm 6.6 2.8 1.9 72 1.9 SW 11 15 6 8 1021.8 1021.9 0.0
04/10:00pm 6.8 3.0 1.9 71 2.0 SW 11 15 6 8 1021.8 1021.9 0.0
04/09:30pm 7.1 3.7 1.8 69 2.2 SW 9 13 5 7 1022.1 1022.2 0.0
04/09:00pm 7.5 3.8 2.2 69 2.2 SW 11 17 6 9 1022.2 1022.3 0.0
04/08:30pm 6.3 3.3 1.8 73 1.8 SW 7 9 4 5 1022.2 1022.3 0.0
04/08:00pm 7.1 4.1 1.8 69 2.2 WSW 7 9 4 5 1022.2 1022.3 0.0
04/07:30pm 8.0 4.6 2.0 66 2.5 WSW 9 11 5 6 1022.0 1022.1 0.0
04/07:00pm 9.1 5.5 2.7 64 2.7 SW 11 17 6 9 1021.7 1021.8 0.0
04/06:30pm 7.7 5.1 3.4 74 1.8 SSW 6 9 3 5 1021.6 1021.7 0.0
04/06:00pm 9.5 6.8 3.5 66 2.6 SE 7 9 4 5 1021.3 1021.4 0.0
04/05:30pm 10.2 7.1 3.5 63 2.9 SE 9 11 5 6 1020.9 1021.0 0.0
04/05:00pm 11.7 8.3 4.0 59 3.4 SE 11 13 6 7 1020.8 1020.9 0.0
04/04:30pm 13.3 10.6 3.7 52 4.3 SSE 7 11 4 6 1020.6 1020.7 0.0
04/04:00pm 15.4 12.9 1.5 39 6.1 NW 4 6 2 3 1020.3 1020.4 0.0
04/03:30pm 15.4 12.4 0.8 37 6.3 NNW 6 9 3 5 1020.1 1020.2 0.0
04/03:00pm 15.6 12.3 0.2 35 6.6 W 7 11 4 6 1020.1 1020.2 0.0
04/02:30pm 15.6 12.6 1.0 37 6.4 SSW 6 11 3 6 1019.9 1020.0 0.0
04/02:00pm 14.9 11.3 0.7 38 6.1 SW 9 13 5 7 1019.9 1020.0 0.0
04/01:30pm 14.2 10.5 -0.3 37 6.1 W 9 13 5 7 1019.9 1020.0 0.0
04/01:00pm 14.0 10.4 0.3 39 5.8 WNW 9 13 5 7 1020.3 1020.4 0.0
04/12:30pm 13.2 9.6 0.9 43 5.2 WNW 9 13 5 7 1020.8 1020.9 0.0
04/12:00pm 12.0 8.3 0.1 44 4.9 W 9 13 5 7 1021.2 1021.3 0.0
04/11:30am 11.5 8.1 1.7 51 4.2 WNW 9 15 5 8 1021.5 1021.6 0.0
04/11:00am 10.0 7.2 3.3 63 2.9 WSW 7 9 4 5 1022.1 1022.2 0.0
04/10:30am 8.4 5.1 2.6 67 2.4 W 9 13 5 7 1022.5 1022.6 0.0
04/10:00am 6.3 3.7 3.1 80 1.3 WSW 6 9 3 5 1022.8 1022.9 0.0
04/09:30am 4.0 1.3 2.4 89 0.6 SW 6 7 3 4 1022.9 1023.0 0.0
04/09:00am 3.5 0.6 2.6 94 0.4 WSW 7 11 4 6 1022.8 1022.9 0.0
04/08:30am 2.3 -0.5 1.9 97 0.2 WSW 6 7 3 4 1022.8 1022.9 0.0
04/08:00am 1.5 -2.0 1.1 97 0.2 WSW 9 11 5 6 1023.0 1023.1 0.0
04/07:30am 0.3 -3.0 -0.1 97 0.1 WSW 7 9 4 5 1022.8 1022.9 0.0
04/07:00am -0.1 -2.9 -0.7 96 0.2 WSW 4 7 2 4 1022.7 1022.8 0.0
04/06:30am 0.2 -3.2 -0.4 96 0.2 W 7 9 4 5 1022.4 1022.5 0.0
04/06:00am 0.1 -3.1 -0.5 96 0.2 WSW 6 7 3 4 1022.3 1022.4 0.0
04/05:30am 0.7 -3.0 0.1 96 0.2 WSW 9 11 5 6 1022.5 1022.6 0.0
04/05:00am 1.0 -2.6 0.4 96 0.2 WSW 9 11 5 6 1022.3 1022.4 0.0
04/04:30am 1.0 -2.1 0.4 96 0.2 WSW 6 7 3 4 1022.4 1022.5 0.0
04/04:00am 1.4 -1.8 0.8 96 0.2 W 7 11 4 6 1022.8 1022.9 0.0
04/03:30am 1.0 -2.1 0.3 95 0.3 W 6 9 3 5 1023.1 1023.2 0.0
04/03:00am 2.7 -1.0 2.1 96 0.2 SW 11 13 6 7 1023.1 1023.2 0.0
04/02:30am 2.5 -0.9 1.9 96 0.2 WSW 9 13 5 7 1023.5 1023.6 0.0
04/02:00am 2.5 -0.9 1.9 96 0.2 WSW 9 11 5 6 1023.8 1023.9 0.0
04/01:30am 2.2 0.4 1.5 95 0.3 CALM 0 0 0 0 1023.9 1024.0 0.0
04/01:00am 2.4 -1.1 1.5 94 0.3 SW 9 11 5 6 1024.0 1024.1 0.0
04/12:30am 2.5 -0.6 1.5 93 0.4 SW 7 9 4 5 1024.4 1024.5 0.0
04/12:00am 3.4 0.1 2.5 94 0.4 SW 9 11 5 6 1024.8 1024.9 0.0
 
Date/Time
EST
Tmp

°C
App
Tmp
°C
Dew
Point
°C
Rel
Hum
%
Delta-T

°C
Wind Press
QNH
hPa
Press
MSL
hPa
Rain
since
9 am
mm
Dir
 
Spd
km/h
Gust
km/h
Spd
kts
Gust
kts
03/11:30pm 3.8 0.1 2.6 92 0.5 SW 11 15 6 8 1025.1 1025.2 0.0
03/11:00pm 4.5 1.0 3.3 92 0.5 WSW 11 13 6 7 1025.2 1025.3 0.0
03/10:30pm 4.7 1.1 3.2 90 0.6 SW 11 13 6 7 1025.4 1025.5 0.0
03/10:00pm 5.6 1.8 3.9 89 0.7 SW 13 17 7 9 1025.5 1025.6 0.0
03/09:30pm 5.0 1.6 4.0 93 0.4 SW 11 13 6 7 1025.5 1025.6 0.0

Latest Capital City Observations: Canberra | Sydney | Melbourne | Brisbane | Adelaide | Perth | Hobart | Darwin

Other Formats:

Comma delimited format used in spreadsheet applications
http://www.bom.gov.au/fwo/IDN60901/IDN60901.95761.axf

JavaScript Object Notation format (JSON) in row-major order
http://www.bom.gov.au/fwo/IDN60901/IDN60901.95761.json